Notice: Undefined index: language in /home/spanairv/public_html/vam/index.php on line 25
Spanair Virtual

 INFORMACIÓN METAR y TAF
METAR FOR LFKJ
ADDS - METARS form results

(2053 UTC 26 June 2019)
Data provider http://aviationweather.gov/metar/data/
 
METAR text: LFKJ 262030Z AUTO VRB02KT CAVOK 24/20 Q1020 NOSIG
Conditions at: LFKJ (AJACCIO/CAMPO OR, FR) observed 2030 UTC 26 June 2019
Temperature: 24.0°C (75°F)
Dewpoint: 20.0°C (68°F) [RH = 78%]
Pressure (altimeter): 30.12 inches Hg (1020.0 mb)
Winds: variable direction winds at 2 MPH (2 knots; 1.0 m/s)
Visibility: 6 or more miles (10+ km)
Ceiling: ceiling and visibility are OK
Clouds: unknown
Weather: no significant weather observed at this time

METAR text: LFKJ 262000Z AUTO VRB02KT CAVOK 24/19 Q1020 NOSIG
Conditions at: LFKJ (AJACCIO/CAMPO OR, FR) observed 2000 UTC 26 June 2019
Temperature: 24.0°C (75°F)
Dewpoint: 19.0°C (66°F) [RH = 74%]
Pressure (altimeter): 30.12 inches Hg (1020.0 mb)
Winds: variable direction winds at 2 MPH (2 knots; 1.0 m/s)
Visibility: 6 or more miles (10+ km)
Ceiling: ceiling and visibility are OK
Clouds: unknown
Weather: no significant weather observed at this time

Forecast for: LFKJ (AJACCIO/CAMPO OR, FR)
Text: TAF LFKJ 262000Z 2621/2721 VRB02KT CAVOK
Forecast period: 2100 UTC 26 June 2019 to 0700 UTC 27 June 2019
Forecast type: FROM: standard forecast or significant change
Winds: variable direction winds at 2 MPH (2 knots; 1.0 m/s)
Visibility: 6 or more miles 10+ km)
Ceiling: unknown
Clouds: missing
Weather: NSW  (no significant weather)
Text: BECMG 2707/2710 22010KT
Forecast period: 0700 to 1800 UTC 27 June 2019
Forecast type: BECOMING: Conditions expected to become as follows by 1000 UTC 27 June 2019
Winds: from the SW (220 degrees) at 12 MPH (10 knots; 5.1 m/s)
Visibility: 6 or more miles 10+ km)
Ceiling: unknown
Clouds: missing
Weather: NSW  (no significant weather)
Text: BECMG 2718/2720 20003KT
Forecast period: 1800 to 2100 UTC 27 June 2019
Forecast type: BECOMING: Conditions expected to become as follows by 2000 UTC 27 June 2019
Winds: from the SSW (200 degrees) at 3 MPH (3 knots; 1.5 m/s)
Visibility: 6 or more miles 10+ km)
Ceiling: unknown
Clouds: missing
Weather: NSW  (no significant weather)

 MAPA DE AEROPUERTO

 INFORMACIÓN DE PISTA
Pista 02 Longitud 7897 ft Ancho 148 ft
Elevación 15 ft Umbral desplazado 0 ft Rumbo de pista 25
Pista 20 Longitud 7897 ft Ancho 148 ft
Elevación 18 ft Umbral desplazado 744 ft Rumbo de pista 205

 FRECUANCIAS DEL AEROPUERTO
Tipo AFIS Nombre AFIS Frecuencia 119.825 MHZ
Tipo APP Nombre AJACCIO AP Frecuencia 121.05 MHZ
Tipo ATIS Nombre AJACCIO AT Frecuencia 126.925 MHZ
Tipo GND Nombre AJACCIO GN Frecuencia 121.7 MHZ
Tipo TWR Nombre AJACCIO TW Frecuencia 118.075 MHZ

 RADIO AYUDAS DEL AEROPUERTO
Tipo NDB Nombre Ajaccio/Campo Dell Oro Frecuencia 341 KHZ





VAM [v2.6.2]

Normativa | Spanair Virtual © 2017 | Customized by JZ © 2017 for Spanair Virtual